This is the latest recevied weather packets stored in our database for station/object VA6GSB-13. If no packets are shown the sender has not sent any weather packets the latest 10 day(s).
| Time | Temp. | Humidity | Pressure | Rain* | Wind** | Luminosity | Snow |
|---|---|---|---|---|---|---|---|
| 1787667039 | 13.33° C | 77% | 1023 hPa | 0 mm | - | 179 W/m² | - |
| 1787666963 | 13.33° C | 78% | 1022.9 hPa | 0 mm | - | 176 W/m² | - |
| 1787666740 | 13.33° C | 78% | 1023 hPa | 0 mm | - | 167 W/m² | - |
| 1787666441 | 12.78° C | 79% | 1023 hPa | 0 mm | - | 155 W/m² | - |
| 1787666363 | 12.78° C | 79% | 1022.8 hPa | 0 mm | - | 152 W/m² | - |
| 1787666142 | 12.78° C | 80% | 1023 hPa | 0 mm | - | 143 W/m² | - |
| 1787665840 | 12.78° C | 80% | 1023 hPa | 0 mm | - | 131 W/m² | - |
| 1787665539 | 12.22° C | 80% | 1023 hPa | 0 mm | - | 120 W/m² | - |
| 1787665240 | 12.22° C | 81% | 1023 hPa | 0 mm | - | 109 W/m² | - |
| 1787664940 | 12.22° C | 81% | 1023 hPa | 0 mm | - | 98 W/m² | - |
| 1787664866 | 12.22° C | 81% | 1022.8 hPa | 0 mm | - | 95 W/m² | - |
| 1787664641 | 11.67° C | 81% | 1023 hPa | 0 mm | - | 86 W/m² | - |
| 1787664339 | 11.67° C | 82% | 1023 hPa | 0 mm | - | 76 W/m² | - |
| 1787664263 | 11.67° C | 82% | 1022.8 hPa | 0 mm | - | 74 W/m² | - |
| 1787663963 | 11.67° C | 82% | 1022.8 hPa | 0 mm | - | 65 W/m² | - |
| 1787663664 | 11.11° C | 83% | 1022.8 hPa | 0 mm | - | 56 W/m² | - |
| 1787663439 | 11.11° C | 84% | 1023 hPa | 0 mm | - | 49 W/m² | - |
| 1787663366 | 11.11° C | 84% | 1022.7 hPa | 0 mm | - | 47 W/m² | - |
| 1787663140 | 11.11° C | 84% | 1023 hPa | 0 mm | - | 41 W/m² | - |
| 1787662839 | 11.11° C | 84% | 1023 hPa | 0 mm | - | 32 W/m² | - |
| 1787662539 | 11.11° C | 84% | 1023 hPa | 0 mm | - | 23 W/m² | - |
| 1787662464 | 11.11° C | 84% | 1022.6 hPa | 0 mm | - | 23 W/m² | - |
| 1787662240 | 11.11° C | 84% | 1023 hPa | 0 mm | - | 18 W/m² | - |
| 1787661939 | 11.11° C | 84% | 1023 hPa | 0 mm | - | 13 W/m² | - |
| 1787661863 | 11.11° C | 84% | 1022.6 hPa | 0 mm | - | 13 W/m² | - |
* Rain latest hour (hover to see other rain measurements)
** Current wind speed in m/s (hover to see current wind gust speed)